Terminal Aerodrome Forecast
Issued by NWS Twin Cities, MN

Home | Current Version | Previous Version | Text Only | Print | Product List | Glossary On
Versions: 1 2 3 4 5 6 7 8 9 10 11 12 13 14 15 16 17 18 19 20 21 22 23 24 25 26 27
000
FTUS43 KMPX 202200 AAB
TAFSTC
TAF AMD
KSTC 202217Z 2022/2118 30012G20KT P6SM SCT025 OVC045
      TEMPO 2022/2023 2SM SHRA BKN025
     FM210300 31012KT P6SM BKN050
     FM210600 31009KT P6SM SCT100
      TEMPO 2111/2114 BKN020=

USA.gov is the U.S. government's official web portal to all federal, state and local government web resources and services.